Time;durP1;ratioP1;P1;durP2;ratioP2;P2;SDS_P1;SDS_P2;PMS_P1;PMS_P2;Temp;Humidity;BMP_temperature;BMP_pressure;BME280_temperature;BME280_humidity;BME280_pressure;Samples;Min_cycle;Max_cycle;Signal;HPM_P1;HPM_P2
2022/04/24 00:00:16;;;;;;;;;;;20.80;49.30;;;;;;5093917;28;20398;-45
2022/04/24 00:02:43;;;;;;;;;;;20.80;49.30;;;;;;5094169;28;20379;-50
2022/04/24 00:05:10;;;;;;;;;;;20.80;49.30;;;;;;5093906;28;19924;-51
2022/04/24 00:07:37;;;;;;;;;;;20.80;49.30;;;;;;5094273;28;20007;-50
2022/04/24 00:10:05;;;;;;;;;;;20.80;49.30;;;;;;5094074;28;19924;-49
2022/04/24 00:12:32;;;;;;;;;;;20.80;49.30;;;;;;5093881;28;19928;-48
2022/04/24 00:14:58;;;;;;;;;;;20.80;49.30;;;;;;5093982;28;19947;-50
2022/04/24 00:17:25;;;;;;;;;;;20.80;49.30;;;;;;5094098;28;19924;-48
2022/04/24 00:19:52;;;;;;;;;;;20.80;49.30;;;;;;5093871;28;20010;-50
2022/04/24 00:22:19;;;;;;;;;;;20.80;49.30;;;;;;5093589;28;20007;-47
2022/04/24 00:24:46;;;;;;;;;;;20.80;49.30;;;;;;5093420;28;19928;-45
2022/04/24 00:27:13;;;;;;;;;;;20.80;49.30;;;;;;5093624;28;20338;-49
2022/04/24 00:29:41;;;;;;;;;;;20.80;49.20;;;;;;5093667;28;20379;-48
2022/04/24 00:32:08;;;;;;;;;;;20.80;49.20;;;;;;5093635;28;19930;-50
2022/04/24 00:34:35;;;;;;;;;;;20.80;49.20;;;;;;5093552;28;19924;-45
2022/04/24 00:37:03;;;;;;;;;;;20.80;49.20;;;;;;5093255;28;19928;-45
2022/04/24 00:39:30;;;;;;;;;;;20.80;49.20;;;;;;5093621;28;19931;-51
2022/04/24 00:41:57;;;;;;;;;;;20.80;49.20;;;;;;5093914;28;19930;-45
2022/04/24 00:44:24;;;;;;;;;;;20.80;49.20;;;;;;5093656;28;20295;-45
2022/04/24 00:46:54;;;;;;;;;;;20.80;49.20;;;;;;5093233;28;19931;-45
2022/04/24 00:49:22;;;;;;;;;;;20.80;49.20;;;;;;5093333;28;19927;-49
2022/04/24 00:51:49;;;;;;;;;;;20.80;49.20;;;;;;5093113;28;19981;-45
2022/04/24 00:54:16;;;;;;;;;;;20.80;49.20;;;;;;5093351;28;20368;-50
2022/04/24 00:56:44;;;;;;;;;;;20.80;49.20;;;;;;5093292;28;19924;-45
2022/04/24 00:59:12;;;;;;;;;;;20.80;49.20;;;;;;5093314;28;19924;-49
2022/04/24 01:01:40;;;;;;;;;;;20.80;49.20;;;;;;5093308;28;19924;-45
2022/04/24 01:04:09;;;;;;;;;;;20.80;49.10;;;;;;5093163;28;19925;-49
2022/04/24 01:06:39;;;;;;;;;;;20.80;49.10;;;;;;5093113;28;20006;-46
2022/04/24 01:09:26;;;;;;;;;;;20.80;49.20;;;;;;5096062;28;19931;-49
2022/04/24 01:11:54;;;;;;;;;;;20.80;49.20;;;;;;5097539;28;19928;-47
2022/04/24 01:14:22;;;;;;;;;;;20.80;49.20;;;;;;5097370;28;19924;-50
2022/04/24 01:16:49;;;;;;;;;;;20.80;49.10;;;;;;5097168;28;19925;-45
2022/04/24 01:19:17;;;;;;;;;;;20.80;49.10;;;;;;5097160;28;19924;-51
2022/04/24 01:21:44;;;;;;;;;;;20.80;49.10;;;;;;5097046;28;19930;-47
2022/04/24 01:24:13;;;;;;;;;;;20.80;49.10;;;;;;5096957;28;19932;-44
2022/04/24 01:26:40;;;;;;;;;;;20.80;49.10;;;;;;5079500;28;19924;-45
2022/04/24 01:29:07;;;;;;;;;;;20.80;49.10;;;;;;5097021;28;20379;-44
2022/04/24 01:31:34;;;;;;;;;;;20.80;49.10;;;;;;5097166;28;19924;-45
2022/04/24 01:34:01;;;;;;;;;;;20.80;49.10;;;;;;5097180;28;19973;-45
2022/04/24 01:36:28;;;;;;;;;;;20.80;49.10;;;;;;5096931;28;19925;-44
2022/04/24 01:38:55;;;;;;;;;;;20.80;49.10;;;;;;5097142;28;20287;-45
2022/04/24 01:41:22;;;;;;;;;;;20.80;49.10;;;;;;5097062;28;20302;-45
2022/04/24 01:43:49;;;;;;;;;;;20.80;49.10;;;;;;5097239;28;20299;-50
2022/04/24 01:46:16;;;;;;;;;;;20.80;49.10;;;;;;5096379;28;19924;-45
2022/04/24 01:48:44;;;;;;;;;;;20.80;49.10;;;;;;5096508;28;19933;-44
2022/04/24 01:51:11;;;;;;;;;;;20.80;49.10;;;;;;5096802;28;19924;-45
2022/04/24 01:53:38;;;;;;;;;;;20.80;49.10;;;;;;5097000;28;19924;-46
2022/04/24 01:56:06;;;;;;;;;;;20.80;49.10;;;;;;5096646;28;19924;-44
2022/04/24 01:58:34;;;;;;;;;;;20.80;49.10;;;;;;5096342;28;19928;-44
2022/04/24 02:01:01;;;;;;;;;;;20.80;49.10;;;;;;5096488;28;20384;-45
2022/04/24 02:03:29;;;;;;;;;;;20.80;49.10;;;;;;5096708;28;20257;-45
2022/04/24 02:05:57;;;;;;;;;;;20.80;49.10;;;;;;5096346;28;20026;-44
2022/04/24 02:08:24;;;;;;;;;;;20.80;49.10;;;;;;5096424;28;19963;-44
2022/04/24 02:10:51;;;;;;;;;;;20.80;49.10;;;;;;5096149;28;19924;-44
2022/04/24 02:13:19;;;;;;;;;;;20.80;49.10;;;;;;5096030;28;19928;-45
2022/04/24 02:15:46;;;;;;;;;;;20.70;49.00;;;;;;5096491;28;20257;-45
2022/04/24 02:18:13;;;;;;;;;;;20.70;49.00;;;;;;5095985;28;19935;-45
2022/04/24 02:20:40;;;;;;;;;;;20.80;49.10;;;;;;5096271;28;19947;-46
2022/04/24 02:23:08;;;;;;;;;;;20.80;49.00;;;;;;5095920;28;19924;-44
2022/04/24 02:25:35;;;;;;;;;;;20.80;49.00;;;;;;5095973;28;19924;-45
2022/04/24 02:28:02;;;;;;;;;;;20.80;49.00;;;;;;5095763;28;19924;-45
2022/04/24 02:30:30;;;;;;;;;;;20.80;49.00;;;;;;5077550;28;20283;-47
2022/04/24 02:32:58;;;;;;;;;;;20.80;49.00;;;;;;5095869;28;19924;-44
2022/04/24 02:35:26;;;;;;;;;;;20.80;49.00;;;;;;5095885;28;19931;-46
2022/04/24 02:37:53;;;;;;;;;;;20.80;49.10;;;;;;5096080;28;19932;-46
2022/04/24 02:40:21;;;;;;;;;;;20.70;48.90;;;;;;5096038;28;19947;-44
2022/04/24 02:42:52;;;;;;;;;;;20.80;49.00;;;;;;5095330;28;20014;-45
2022/04/24 02:45:19;;;;;;;;;;;20.70;48.90;;;;;;5095400;28;19928;-45
2022/04/24 02:47:47;;;;;;;;;;;20.80;49.00;;;;;;5095772;28;20287;-45
2022/04/24 02:50:14;;;;;;;;;;;20.70;48.90;;;;;;5095264;28;20387;-45
2022/04/24 02:52:59;;;;;;;;;;;20.70;48.90;;;;;;5095465;28;20298;-45
2022/04/24 02:55:26;;;;;;;;;;;20.70;48.90;;;;;;5095718;28;19924;-45
2022/04/24 02:57:54;;;;;;;;;;;20.70;48.90;;;;;;5095908;28;20316;-45
2022/04/24 03:00:24;;;;;;;;;;;20.70;48.90;;;;;;5095399;28;19924;-44
2022/04/24 03:02:53;;;;;;;;;;;20.70;48.90;;;;;;5095341;28;19931;-47
2022/04/24 03:05:21;;;;;;;;;;;20.70;48.90;;;;;;5095482;28;19928;-45
2022/04/24 03:07:48;;;;;;;;;;;20.70;48.90;;;;;;5095419;28;19928;-44
2022/04/24 03:10:16;;;;;;;;;;;20.70;48.90;;;;;;5095027;28;20292;-45
2022/04/24 03:12:44;;;;;;;;;;;20.70;48.90;;;;;;5095368;28;19928;-44
2022/04/24 03:15:12;;;;;;;;;;;20.70;48.90;;;;;;5095062;28;19924;-44
2022/04/24 03:17:39;;;;;;;;;;;20.70;48.90;;;;;;5094953;28;19964;-47
2022/04/24 03:20:08;;;;;;;;;;;20.70;48.90;;;;;;5094974;28;19936;-52
2022/04/24 03:22:35;;;;;;;;;;;20.70;48.90;;;;;;5095206;28;19989;-52
2022/04/24 03:25:03;;;;;;;;;;;20.70;48.90;;;;;;5094748;28;19924;-51
2022/04/24 03:27:30;;;;;;;;;;;20.70;48.90;;;;;;5094751;28;19931;-49
2022/04/24 03:29:57;;;;;;;;;;;20.70;48.90;;;;;;5094834;28;19924;-49
2022/04/24 03:32:24;;;;;;;;;;;20.70;48.90;;;;;;5094245;28;19928;-50
2022/04/24 03:34:51;;;;;;;;;;;20.70;48.90;;;;;;5094540;28;20383;-48
2022/04/24 03:37:18;;;;;;;;;;;20.70;48.90;;;;;;5094803;28;19935;-51
2022/04/24 03:39:45;;;;;;;;;;;20.70;48.90;;;;;;5094355;28;19924;-47
2022/04/24 03:42:12;;;;;;;;;;;20.70;48.90;;;;;;5094300;28;19931;-52
2022/04/24 03:44:39;;;;;;;;;;;20.70;48.90;;;;;;5094545;28;19931;-47
2022/04/24 03:47:07;;;;;;;;;;;20.70;48.90;;;;;;5094481;28;20276;-44
2022/04/24 03:49:35;;;;;;;;;;;20.70;48.80;;;;;;5094649;28;19978;-47
2022/04/24 03:52:02;;;;;;;;;;;20.70;48.80;;;;;;5094599;28;20318;-49
2022/04/24 03:54:30;;;;;;;;;;;20.70;48.80;;;;;;5094338;28;19924;-45
2022/04/24 03:56:57;;;;;;;;;;;20.70;48.80;;;;;;5094456;28;19994;-45
2022/04/24 03:59:24;;;;;;;;;;;20.70;49.40;;;;;;5094090;28;19935;-48
2022/04/24 04:01:51;;;;;;;;;;;20.70;48.80;;;;;;5094543;28;19931;-44
2022/04/24 04:04:18;;;;;;;;;;;20.70;48.80;;;;;;5094026;28;19924;-51
2022/04/24 04:06:45;;;;;;;;;;;20.70;48.80;;;;;;5093999;28;19930;-45
2022/04/24 04:09:12;;;;;;;;;;;20.70;48.80;;;;;;5094110;28;19924;-50
2022/04/24 04:11:39;;;;;;;;;;;20.70;48.80;;;;;;5093713;28;19924;-44
2022/04/24 04:14:06;;;;;;;;;;;20.70;48.70;;;;;;5094186;28;20303;-44
2022/04/24 04:16:33;;;;;;;;;;;20.70;48.70;;;;;;5093678;28;19942;-46
2022/04/24 04:19:01;;;;;;;;;;;20.70;48.70;;;;;;5093805;28;19924;-44
2022/04/24 04:21:28;;;;;;;;;;;20.70;48.70;;;;;;5093597;28;20398;-44
2022/04/24 04:23:54;;;;;;;;;;;20.70;48.70;;;;;;5093689;28;20387;-52
2022/04/24 04:26:21;;;;;;;;;;;20.70;48.70;;;;;;5093920;28;19928;-46
2022/04/24 04:28:48;;;;;;;;;;;20.70;48.70;;;;;;5093700;28;19924;-44
2022/04/24 04:31:16;;;;;;;;;;;20.70;48.70;;;;;;5093572;28;19924;-44
2022/04/24 04:33:43;;;;;;;;;;;20.70;48.70;;;;;;5093876;28;20318;-50
2022/04/24 04:36:09;;;;;;;;;;;20.70;48.70;;;;;;5075293;28;19923;-46
2022/04/24 04:38:37;;;;;;;;;;;20.70;48.70;;;;;;5075465;28;19970;-48
2022/04/24 04:41:04;;;;;;;;;;;20.80;48.80;;;;;;5093436;28;19928;-44
2022/04/24 04:43:31;;;;;;;;;;;20.80;48.80;;;;;;5092977;28;19931;-51
2022/04/24 04:45:58;;;;;;;;;;;20.80;48.80;;;;;;5093871;28;20330;-46
2022/04/24 04:48:26;;;;;;;;;;;20.80;48.80;;;;;;5093487;28;20383;-44
2022/04/24 04:50:53;;;;;;;;;;;20.80;48.70;;;;;;5093702;28;19924;-44
2022/04/24 04:53:20;;;;;;;;;;;20.80;48.70;;;;;;5093561;28;19924;-46
2022/04/24 04:55:47;;;;;;;;;;;20.80;48.70;;;;;;5093313;28;19957;-45
2022/04/24 04:58:15;;;;;;;;;;;20.80;48.70;;;;;;5093212;28;19928;-44
2022/04/24 05:00:42;;;;;;;;;;;20.80;48.60;;;;;;5093275;28;20015;-46
2022/04/24 05:03:09;;;;;;;;;;;20.80;48.60;;;;;;5093022;28;19924;-44
2022/04/24 05:05:36;;;;;;;;;;;20.80;48.50;;;;;;5093490;28;19924;-44
2022/04/24 05:08:03;;;;;;;;;;;20.80;48.50;;;;;;5093226;28;19924;-44
2022/04/24 05:10:30;;;;;;;;;;;20.90;48.60;;;;;;5093185;28;19924;-45
2022/04/24 05:12:57;;;;;;;;;;;20.90;48.50;;;;;;5093411;28;19924;-44
2022/04/24 05:15:25;;;;;;;;;;;20.90;48.50;;;;;;5093585;28;20345;-44
2022/04/24 05:17:52;;;;;;;;;;;20.90;48.50;;;;;;5092959;28;19928;-44
2022/04/24 05:20:20;;;;;;;;;;;20.90;48.50;;;;;;5093012;28;19937;-44
2022/04/24 05:22:47;;;;;;;;;;;20.90;48.50;;;;;;5093206;28;20287;-44
2022/04/24 05:25:14;;;;;;;;;;;20.90;48.50;;;;;;5093081;28;19932;-44
2022/04/24 05:27:41;;;;;;;;;;;20.90;48.50;;;;;;5093155;28;19986;-45
2022/04/24 05:30:09;;;;;;;;;;;20.90;48.50;;;;;;5093024;28;19925;-44
2022/04/24 05:32:39;;;;;;;;;;;20.90;48.50;;;;;;5092858;28;20330;-44
2022/04/24 05:35:07;;;;;;;;;;;20.90;48.40;;;;;;5093007;28;19974;-44
2022/04/24 05:37:34;;;;;;;;;;;20.90;48.40;;;;;;5093068;28;19924;-44
2022/04/24 05:40:01;;;;;;;;;;;20.90;48.30;;;;;;5093080;28;19924;-46
2022/04/24 05:42:28;;;;;;;;;;;20.90;48.30;;;;;;5093447;28;19947;-44
2022/04/24 05:44:59;;;;;;;;;;;20.90;48.30;;;;;;5092948;28;19929;-44
2022/04/24 05:47:27;;;;;;;;;;;21.00;48.30;;;;;;5093274;28;19924;-45
2022/04/24 05:49:54;;;;;;;;;;;21.00;48.30;;;;;;5092922;28;20368;-44
2022/04/24 05:52:21;;;;;;;;;;;21.00;48.30;;;;;;5092635;28;19924;-44
2022/04/24 05:54:48;;;;;;;;;;;21.00;48.30;;;;;;5095064;28;19951;-44
2022/04/24 05:57:15;;;;;;;;;;;21.00;48.30;;;;;;5096621;28;19946;-44
2022/04/24 05:59:42;;;;;;;;;;;21.00;48.30;;;;;;5096967;28;19930;-44
2022/04/24 06:02:10;;;;;;;;;;;21.00;48.30;;;;;;5096161;28;20423;-46
2022/04/24 06:04:39;;;;;;;;;;;21.00;48.30;;;;;;5096725;28;19967;-45
2022/04/24 06:07:07;;;;;;;;;;;21.00;48.30;;;;;;5096400;28;20383;-45
2022/04/24 06:09:34;;;;;;;;;;;21.00;48.20;;;;;;5086148;28;20020;-45
2022/04/24 06:12:01;;;;;;;;;;;21.00;48.20;;;;;;5058617;28;19947;-44
2022/04/24 06:14:28;;;;;;;;;;;21.00;48.20;;;;;;5075892;28;19925;-44
2022/04/24 06:16:55;;;;;;;;;;;21.00;48.20;;;;;;5075922;28;19935;-44
2022/04/24 06:19:22;;;;;;;;;;;21.00;48.20;;;;;;5075841;28;19932;-44
2022/04/24 06:21:49;;;;;;;;;;;21.00;48.20;;;;;;5076063;28;19925;-44
2022/04/24 06:24:16;;;;;;;;;;;21.00;48.20;;;;;;5075741;28;20265;-45
2022/04/24 06:26:46;;;;;;;;;;;21.00;48.20;;;;;;5076108;28;20015;-44
2022/04/24 06:29:13;;;;;;;;;;;21.00;48.20;;;;;;5094158;28;19931;-44
2022/04/24 06:31:40;;;;;;;;;;;21.00;48.20;;;;;;5095713;28;19924;-44
2022/04/24 06:34:07;;;;;;;;;;;21.00;48.20;;;;;;5095719;28;19973;-44
2022/04/24 06:36:34;;;;;;;;;;;21.00;48.10;;;;;;5095884;28;19931;-51
2022/04/24 06:39:01;;;;;;;;;;;21.00;48.10;;;;;;5095666;28;19924;-51
2022/04/24 06:41:28;;;;;;;;;;;21.00;48.10;;;;;;5095976;28;19932;-51
2022/04/24 06:43:55;;;;;;;;;;;21.00;48.10;;;;;;5095963;28;19924;-48
2022/04/24 06:46:23;;;;;;;;;;;21.00;48.20;;;;;;5095733;28;19951;-50
2022/04/24 06:48:51;;;;;;;;;;;21.00;48.10;;;;;;5095465;28;20395;-50
2022/04/24 06:51:18;;;;;;;;;;;21.00;48.10;;;;;;5095766;28;20287;-46
2022/04/24 06:53:46;;;;;;;;;;;21.00;48.10;;;;;;5095488;28;19924;-51
2022/04/24 06:56:12;;;;;;;;;;;21.00;48.10;;;;;;5095691;28;19946;-48
2022/04/24 06:58:39;;;;;;;;;;;21.00;48.10;;;;;;5095349;28;19924;-48
2022/04/24 07:01:13;;;;;;;;;;;21.00;48.10;;;;;;5095725;28;19939;-50
2022/04/24 07:03:40;;;;;;;;;;;21.00;48.10;;;;;;5077535;28;19973;-49
2022/04/24 07:06:07;;;;;;;;;;;21.00;48.10;;;;;;5094228;28;19924;-47
2022/04/24 07:08:35;;;;;;;;;;;21.00;48.10;;;;;;5092024;28;20329;-50
2022/04/24 07:11:02;;;;;;;;;;;21.00;48.10;;;;;;5075263;28;19931;-49
2022/04/24 07:13:29;;;;;;;;;;;21.00;48.20;;;;;;5075060;28;19947;-50
2022/04/24 07:15:56;;;;;;;;;;;21.00;48.10;;;;;;5075199;28;19925;-52
2022/04/24 07:18:24;;;;;;;;;;;21.00;48.20;;;;;;5074658;28;19975;-50
2022/04/24 07:20:53;;;;;;;;;;;21.00;48.10;;;;;;5074935;28;19931;-49
2022/04/24 07:23:20;;;;;;;;;;;21.10;48.20;;;;;;5075362;28;20306;-45
2022/04/24 07:25:48;;;;;;;;;;;21.00;48.10;;;;;;5095240;28;19955;-45
2022/04/24 07:28:16;;;;;;;;;;;21.10;48.20;;;;;;5094712;28;19924;-45
2022/04/24 07:30:43;;;;;;;;;;;21.10;48.10;;;;;;5094798;28;20445;-50
2022/04/24 07:33:11;;;;;;;;;;;21.10;48.00;;;;;;5094619;28;19924;-45
2022/04/24 07:35:38;;;;;;;;;;;21.10;48.00;;;;;;5094836;28;19956;-44
2022/04/24 07:38:05;;;;;;;;;;;21.10;48.00;;;;;;5094341;28;20387;-50
2022/04/24 07:40:35;;;;;;;;;;;21.10;48.00;;;;;;5094609;28;19924;-45
2022/04/24 07:43:07;;;;;;;;;;;21.10;48.00;;;;;;5094401;28;20444;-46
2022/04/24 07:45:37;;;;;;;;;;;21.00;48.00;;;;;;5094363;28;20367;-45
2022/04/24 07:48:06;;;;;;;;;;;21.10;48.00;;;;;;5094685;28;20299;-45
2022/04/24 07:50:34;;;;;;;;;;;21.10;48.00;;;;;;5094138;28;19924;-47
2022/04/24 07:53:02;;;;;;;;;;;21.10;48.00;;;;;;5094582;28;19928;-46
2022/04/24 07:55:29;;;;;;;;;;;21.10;47.90;;;;;;5094620;28;20369;-45
2022/04/24 07:58:03;;;;;;;;;;;21.20;48.00;;;;;;5093998;28;20269;-44
2022/04/24 08:00:30;;;;;;;;;;;21.20;47.90;;;;;;5094307;28;19924;-49
2022/04/24 08:03:01;;;;;;;;;;;21.20;47.90;;;;;;5094309;28;19947;-45
2022/04/24 08:05:39;;;;;;;;;;;21.20;47.80;;;;;;5094083;28;19924;-45
2022/04/24 08:08:07;;;;;;;;;;;21.30;47.80;;;;;;5094301;28;20284;-45
2022/04/24 08:10:35;;;;;;;;;;;21.30;47.70;;;;;;5056330;28;19934;-44
2022/04/24 08:13:06;;;;;;;;;;;21.30;47.60;;;;;;5073710;28;19925;-45
2022/04/24 08:15:40;;;;;;;;;;;21.30;47.50;;;;;;5073669;28;19924;-46
2022/04/24 08:18:07;;;;;;;;;;;21.40;47.50;;;;;;5073254;28;19928;-44
2022/04/24 08:20:35;;;;;;;;;;;21.40;47.50;;;;;;5082775;28;19924;-46
2022/04/24 08:23:03;;;;;;;;;;;21.30;47.40;;;;;;5093462;28;19931;-48
2022/04/24 08:25:34;;;;;;;;;;;21.40;47.50;;;;;;5093855;28;19931;-44
2022/04/24 08:28:06;;;;;;;;;;;21.40;47.50;;;;;;5094092;28;19931;-47
2022/04/24 08:30:35;;;;;;;;;;;21.30;47.40;;;;;;5094055;28;20011;-50
2022/04/24 08:33:02;;;;;;;;;;;21.40;47.50;;;;;;5093602;28;19924;-45
2022/04/24 08:35:29;;;;;;;;;;;21.40;47.50;;;;;;5093914;28;20299;-46
2022/04/24 08:37:56;;;;;;;;;;;21.40;47.50;;;;;;5093615;28;19928;-46
2022/04/24 08:40:24;;;;;;;;;;;21.40;47.50;;;;;;5093595;28;19924;-45
2022/04/24 08:42:52;;;;;;;;;;;21.40;47.40;;;;;;5093461;28;19924;-45
2022/04/24 08:45:22;;;;;;;;;;;21.40;47.40;;;;;;5093864;28;19928;-46
2022/04/24 08:47:50;;;;;;;;;;;21.30;47.30;;;;;;5093491;28;20376;-47
2022/04/24 08:50:18;;;;;;;;;;;21.40;47.30;;;;;;5093199;28;19930;-48
2022/04/24 08:52:46;;;;;;;;;;;21.40;47.30;;;;;;5093511;28;19924;-49
2022/04/24 08:55:13;;;;;;;;;;;21.40;47.30;;;;;;5093311;28;20388;-46
2022/04/24 08:57:40;;;;;;;;;;;21.40;47.30;;;;;;5093354;28;19924;-46
2022/04/24 09:00:08;;;;;;;;;;;21.40;47.30;;;;;;5093287;28;19931;-45
2022/04/24 09:02:51;;;;;;;;;;;21.40;47.10;;;;;;5093640;28;19969;-45
2022/04/24 09:05:20;;;;;;;;;;;21.40;47.10;;;;;;5093287;28;20439;-44
2022/04/24 09:07:47;;;;;;;;;;;21.40;47.10;;;;;;5093246;28;20372;-45
2022/04/24 09:10:47;;;;;;;;;;;21.40;47.10;;;;;;5058917;28;19928;-45
2022/04/24 09:13:24;;;;;;;;;;;21.40;47.00;;;;;;5073454;28;19924;-44
2022/04/24 09:15:57;;;;;;;;;;;21.40;47.00;;;;;;5074132;28;20295;-45
2022/04/24 09:18:40;;;;;;;;;;;21.40;46.90;;;;;;5093393;28;19989;-45
2022/04/24 09:21:10;;;;;;;;;;;21.50;47.00;;;;;;5092877;28;19970;-44
2022/04/24 09:23:37;;;;;;;;;;;21.50;46.90;;;;;;5093176;28;19951;-44
2022/04/24 09:26:04;;;;;;;;;;;21.50;46.90;;;;;;5093073;28;20397;-45
2022/04/24 09:28:40;;;;;;;;;;;21.50;46.80;;;;;;5093508;28;19931;-44
2022/04/24 09:31:08;;;;;;;;;;;21.50;46.70;;;;;;5097083;28;19932;-45
2022/04/24 09:33:39;;;;;;;;;;;21.60;46.70;;;;;;5097085;28;19928;-45
2022/04/24 09:36:07;;;;;;;;;;;21.60;47.30;;;;;;5079066;28;19932;-46
2022/04/24 09:38:41;;;;;;;;;;;21.60;46.60;;;;;;5096974;28;20376;-45
2022/04/24 09:41:19;;;;;;;;;;;21.60;46.50;;;;;;5097072;28;20383;-48
2022/04/24 09:43:46;;;;;;;;;;;21.60;46.50;;;;;;5097194;28;19924;-47
2022/04/24 09:46:13;;;;;;;;;;;21.60;46.40;;;;;;5096998;28;20307;-47
2022/04/24 09:48:40;;;;;;;;;;;21.60;46.40;;;;;;5097232;28;20264;-45
2022/04/24 09:51:09;;;;;;;;;;;21.60;46.40;;;;;;5096532;28;19924;-44
2022/04/24 09:53:41;;;;;;;;;;;21.70;46.40;;;;;;5094946;28;19935;-46
2022/04/24 09:56:09;;;;;;;;;;;21.70;47.00;;;;;;5076700;28;19924;-48
2022/04/24 09:58:37;;;;;;;;;;;21.70;46.40;;;;;;5089837;28;19928;-50
2022/04/24 10:01:06;;;;;;;;;;;21.70;46.30;;;;;;5096609;28;19925;-47
2022/04/24 10:03:36;;;;;;;;;;;21.70;46.20;;;;;;5096860;28;20463;-50
2022/04/24 10:06:07;;;;;;;;;;;21.70;46.20;;;;;;5096631;28;19924;-48
2022/04/24 10:08:34;;;;;;;;;;;21.70;46.30;;;;;;5093504;28;19924;-50
2022/04/24 10:11:05;;;;;;;;;;;21.70;46.20;;;;;;5076114;28;19925;-51
2022/04/24 10:13:38;;;;;;;;;;;21.70;46.20;;;;;;5088927;28;19924;-46
2022/04/24 10:16:04;;;;;;;;;;;21.80;46.20;;;;;;5096124;28;19930;-52
2022/04/24 10:18:33;;;;;;;;;;;21.80;46.10;;;;;;5096194;28;19924;-48
2022/04/24 10:21:10;;;;;;;;;;;21.80;46.10;;;;;;5096313;28;19924;-52
2022/04/24 10:23:38;;;;;;;;;;;21.80;46.00;;;;;;5095937;28;19924;-45
2022/04/24 10:26:18;;;;;;;;;;;21.80;46.00;;;;;;5096444;28;19924;-49
2022/04/24 10:28:48;;;;;;;;;;;21.80;46.70;;;;;;5095830;28;19924;-47
2022/04/24 10:31:15;;;;;;;;;;;21.80;46.20;;;;;;5095923;28;19925;-44
2022/04/24 10:33:55;;;;;;;;;;;21.70;46.10;;;;;;5096028;28;20376;-44
2022/04/24 10:36:23;;;;;;;;;;;21.70;46.20;;;;;;5096263;28;20357;-45
2022/04/24 10:38:52;;;;;;;;;;;21.70;46.20;;;;;;5095661;28;20017;-44
2022/04/24 10:41:39;;;;;;;;;;;21.70;46.20;;;;;;5094820;28;20350;-44
2022/04/24 10:44:12;;;;;;;;;;;21.70;46.20;;;;;;5095782;28;19925;-45
2022/04/24 10:46:40;;;;;;;;;;;21.70;46.30;;;;;;5095699;28;19924;-44
2022/04/24 10:49:13;;;;;;;;;;;21.60;46.20;;;;;;5095962;28;19924;-44
2022/04/24 10:51:42;;;;;;;;;;;21.60;46.30;;;;;;5095742;28;19924;-44
2022/04/24 10:54:13;;;;;;;;;;;21.60;46.30;;;;;;5095565;28;19931;-44
2022/04/24 10:56:42;;;;;;;;;;;21.60;46.30;;;;;;5095503;28;19924;-44
2022/04/24 10:59:14;;;;;;;;;;;21.60;46.30;;;;;;5095792;28;19927;-44
2022/04/24 11:01:43;;;;;;;;;;;21.60;46.30;;;;;;5095600;28;19924;-48
2022/04/24 11:04:11;;;;;;;;;;;21.60;46.30;;;;;;5077926;28;19924;-45
2022/04/24 11:06:39;;;;;;;;;;;21.70;46.40;;;;;;5095734;28;20326;-44
2022/04/24 11:09:11;;;;;;;;;;;21.70;46.40;;;;;;5094220;28;19932;-44
2022/04/24 11:11:47;;;;;;;;;;;21.70;46.30;;;;;;5095654;28;19930;-44
2022/04/24 11:14:22;;;;;;;;;;;21.60;46.20;;;;;;5095499;28;20010;-44
2022/04/24 11:16:58;;;;;;;;;;;21.70;46.40;;;;;;5095138;28;20479;-44
2022/04/24 11:19:28;;;;;;;;;;;21.70;46.30;;;;;;5095491;28;19936;-44
2022/04/24 11:21:59;;;;;;;;;;;21.70;46.20;;;;;;5076839;28;20105;-44
2022/04/24 11:24:27;;;;;;;;;;;21.70;46.80;;;;;;5094804;28;19928;-44
2022/04/24 11:26:56;;;;;;;;;;;21.70;46.20;;;;;;5095100;28;19931;-44
2022/04/24 11:29:23;;;;;;;;;;;21.70;46.20;;;;;;5094834;28;19935;-45
2022/04/24 11:31:52;;;;;;;;;;;21.70;46.20;;;;;;5095171;28;20287;-44
2022/04/24 11:34:21;;;;;;;;;;;21.70;46.20;;;;;;5094599;28;20019;-45
2022/04/24 11:36:49;;;;;;;;;;;21.70;46.30;;;;;;5095104;28;19931;-44
2022/04/24 11:39:17;;;;;;;;;;;21.70;46.30;;;;;;5094622;28;19925;-44
2022/04/24 11:41:46;;;;;;;;;;;21.70;46.20;;;;;;5094960;28;19931;-44
2022/04/24 11:50:15;;;;;;;;;;;21.70;46.20;;;;;;5094606;28;20288;-45
2022/04/24 11:53:03;;;;;;;;;;;21.70;46.10;;;;;;5093809;28;19939;-45
2022/04/24 11:56:16;;;;;;;;;;;21.80;46.20;;;;;;5094641;28;19924;-45
2022/04/24 11:58:21;;;;;;;;;;;21.70;46.10;;;;;;5083678;28;19947;-44
2022/04/24 12:00:48;;;;;;;;;;;21.70;46.10;;;;;;5094442;28;20391;-44
2022/04/24 12:03:15;;;;;;;;;;;21.80;46.20;;;;;;5094194;28;19987;-44
2022/04/24 12:05:43;;;;;;;;;;;21.80;46.20;;;;;;5094403;28;19930;-45
2022/04/24 12:08:12;;;;;;;;;;;21.80;46.20;;;;;;5094307;28;19970;-44
2022/04/24 12:10:43;;;;;;;;;;;21.80;46.20;;;;;;5073921;28;19932;-45
2022/04/24 12:13:10;;;;;;;;;;;21.80;46.10;;;;;;5073939;28;19924;-45
2022/04/24 12:15:38;;;;;;;;;;;21.80;46.20;;;;;;5073698;28;19932;-44
2022/04/24 12:18:05;;;;;;;;;;;21.70;46.10;;;;;;5073545;28;20372;-44
2022/04/24 12:20:37;;;;;;;;;;;21.70;46.10;;;;;;5073893;28;19947;-45
2022/04/24 12:23:11;;;;;;;;;;;21.80;46.10;;;;;;5073432;28;19976;-44
2022/04/24 12:25:52;;;;;;;;;;;21.80;46.00;;;;;;5093480;28;19924;-44
2022/04/24 12:28:33;;;;;;;;;;;21.80;46.00;;;;;;5081793;28;19925;-44
2022/04/24 12:31:01;;;;;;;;;;;21.80;46.00;;;;;;5073564;28;19925;-44
2022/04/24 12:33:29;;;;;;;;;;;21.80;46.00;;;;;;5073439;28;20015;-44
2022/04/24 12:36:06;;;;;;;;;;;21.80;46.00;;;;;;5073540;28;19974;-45
2022/04/24 12:38:33;;;;;;;;;;;21.80;46.00;;;;;;5073127;28;19970;-44
2022/04/24 12:41:00;;;;;;;;;;;21.80;46.00;;;;;;5056017;28;19925;-44
2022/04/24 12:43:29;;;;;;;;;;;21.70;46.00;;;;;;5084610;28;19951;-44
2022/04/24 12:45:56;;;;;;;;;;;21.70;46.10;;;;;;5093364;28;19932;-44
2022/04/24 12:48:24;;;;;;;;;;;21.70;46.20;;;;;;5093791;28;19924;-44
2022/04/24 12:50:51;;;;;;;;;;;21.70;46.20;;;;;;5093798;28;20308;-44
2022/04/24 12:53:19;;;;;;;;;;;21.60;46.20;;;;;;5093189;28;20018;-44
2022/04/24 12:55:47;;;;;;;;;;;21.60;46.30;;;;;;5093411;28;19970;-44
2022/04/24 12:58:16;;;;;;;;;;;21.60;46.40;;;;;;5093348;28;19924;-44
2022/04/24 13:00:45;;;;;;;;;;;21.60;46.40;;;;;;5093232;28;20303;-45
2022/04/24 13:03:13;;;;;;;;;;;21.50;46.40;;;;;;5072389;28;20372;-44
2022/04/24 13:05:42;;;;;;;;;;;21.50;46.40;;;;;;5055685;28;19947;-44
2022/04/24 13:08:24;;;;;;;;;;;21.50;46.60;;;;;;5074710;28;19968;-44
2022/04/24 13:10:52;;;;;;;;;;;21.50;46.60;;;;;;5093398;28;19931;-44
2022/04/24 13:13:19;;;;;;;;;;;21.40;46.70;;;;;;5092998;28;19960;-49
2022/04/24 13:18:36;;;;;;;;;;;21.40;46.70;;;;;;5093304;28;19993;-52
2022/04/24 13:21:03;;;;;;;;;;;21.40;46.80;;;;;;5093028;28;19924;-49
2022/04/24 13:23:31;;;;;;;;;;;21.40;46.80;;;;;;5092933;28;19924;-49
2022/04/24 13:25:58;;;;;;;;;;;21.30;46.80;;;;;;5092843;28;19977;-46
2022/04/24 13:28:25;;;;;;;;;;;21.30;46.90;;;;;;5093282;28;20284;-44
2022/04/24 13:30:52;;;;;;;;;;;21.30;46.90;;;;;;5093405;28;19989;-45
2022/04/24 13:33:19;;;;;;;;;;;21.30;47.00;;;;;;5092848;28;19932;-44
2022/04/24 13:35:50;;;;;;;;;;;21.30;47.00;;;;;;5093087;28;20433;-44
2022/04/24 13:38:17;;;;;;;;;;;21.30;47.00;;;;;;5092883;28;19928;-45
2022/04/24 13:40:45;;;;;;;;;;;21.40;47.00;;;;;;5093362;28;19928;-45
2022/04/24 13:43:12;;;;;;;;;;;21.40;46.90;;;;;;5092789;28;19924;-46
2022/04/24 13:45:40;;;;;;;;;;;21.50;46.80;;;;;;5093097;28;19924;-45
2022/04/24 13:48:24;;;;;;;;;;;21.50;46.60;;;;;;5092777;28;19942;-48
2022/04/24 13:50:54;;;;;;;;;;;21.60;46.50;;;;;;5092856;28;19985;-47
2022/04/24 13:53:25;;;;;;;;;;;21.60;46.40;;;;;;5093080;28;20303;-45
2022/04/24 13:55:53;;;;;;;;;;;21.70;46.40;;;;;;5093006;28;19928;-44
2022/04/24 13:58:20;;;;;;;;;;;21.70;46.30;;;;;;5092506;28;19924;-45
2022/04/24 14:00:49;;;;;;;;;;;21.70;46.20;;;;;;5092531;28;19935;-45
2022/04/24 14:03:18;;;;;;;;;;;21.70;46.80;;;;;;5092982;28;20026;-47
2022/04/24 14:05:46;;;;;;;;;;;21.70;46.20;;;;;;5093188;28;20326;-45
2022/04/24 14:08:15;;;;;;;;;;;21.70;46.20;;;;;;5093039;28;19931;-45
2022/04/24 14:10:42;;;;;;;;;;;21.70;46.30;;;;;;5072534;28;20008;-46
2022/04/24 14:13:09;;;;;;;;;;;21.70;46.20;;;;;;5072740;28;19931;-45
2022/04/24 14:15:37;;;;;;;;;;;21.70;46.20;;;;;;5074450;28;20304;-45
2022/04/24 14:18:04;;;;;;;;;;;21.70;46.30;;;;;;5076272;28;19924;-45
2022/04/24 14:20:31;;;;;;;;;;;21.70;46.30;;;;;;5084526;28;19924;-45
2022/04/24 14:23:20;;;;;;;;;;;21.70;46.40;;;;;;5096216;28;20277;-45
2022/04/24 14:25:48;;;;;;;;;;;21.60;46.30;;;;;;5096120;28;19924;-45
2022/04/24 14:28:15;;;;;;;;;;;21.60;46.40;;;;;;5096270;28;20273;-45
2022/04/24 14:30:43;;;;;;;;;;;21.60;46.50;;;;;;5096101;28;19931;-45
2022/04/24 14:33:11;;;;;;;;;;;21.60;46.50;;;;;;5095853;28;20006;-45